createdAt,value
2023-05-24T00:19:58.509Z,25.00
2023-05-24T00:20:58.461Z,25.00
2023-05-24T00:21:58.446Z,25.00
2023-05-24T00:22:58.444Z,25.00
2023-05-24T00:23:58.430Z,25.00
2023-05-24T00:24:58.418Z,24.11
2023-05-24T00:25:58.414Z,25.74
2023-05-24T00:26:58.414Z,25.00
2023-05-24T00:27:58.407Z,25.18
2023-05-24T00:28:58.418Z,25.00
2023-05-24T00:29:58.395Z,25.97
2023-05-24T00:30:58.385Z,24.55
2023-05-24T00:31:58.432Z,25.66
2023-05-24T00:32:58.409Z,27.01
2023-05-24T00:33:58.701Z,25.00
2023-05-24T00:34:58.347Z,25.00
2023-05-24T00:35:58.380Z,25.50
2023-05-24T00:36:58.346Z,25.33
2023-05-24T00:37:58.329Z,25.00
2023-05-24T00:38:58.327Z,25.00
2023-05-24T00:39:58.337Z,26.98
2023-05-24T00:40:58.321Z,26.75
2023-05-24T00:41:58.303Z,26.57
2023-05-24T00:42:58.322Z,26.94
2023-05-24T00:43:58.321Z,28.24
2023-05-24T00:44:58.298Z,25.28
2023-05-24T00:45:58.290Z,27.82
2023-05-24T00:46:58.269Z,25.36
2023-05-24T00:47:58.373Z,29.08
2023-05-24T00:48:58.262Z,25.93
2023-05-24T00:49:58.258Z,27.19
2023-05-24T00:50:58.237Z,25.43
2023-05-24T00:51:58.248Z,28.75
2023-05-24T00:52:58.253Z,28.12
2023-05-24T00:53:58.220Z,25.04
2023-05-24T00:54:58.227Z,27.65
2023-05-24T00:55:58.212Z,25.95
2023-05-24T00:56:58.211Z,29.87
2023-05-24T00:57:58.202Z,27.61
2023-05-24T00:58:58.186Z,27.34
2023-05-24T00:59:58.194Z,26.67
2023-05-24T01:00:58.169Z,27.34
2023-05-24T01:01:58.231Z,29.27
2023-05-24T01:02:58.263Z,28.09
2023-05-24T01:03:58.218Z,28.11
2023-05-24T01:04:58.202Z,27.32
2023-05-24T01:05:58.162Z,28.37
2023-05-24T01:06:58.150Z,28.14
2023-05-24T01:07:58.166Z,27.08
2023-05-24T01:08:58.136Z,27.02
2023-05-24T01:09:58.132Z,29.47
2023-05-24T01:10:58.121Z,28.36
2023-05-24T01:11:58.113Z,26.61
2023-05-24T01:12:58.117Z,26.45
2023-05-24T01:13:58.117Z,25.00
2023-05-24T01:14:58.101Z,25.61
2023-05-24T01:15:58.139Z,27.81
2023-05-24T01:16:58.098Z,26.30
2023-05-24T01:17:58.095Z,27.32
2023-05-24T01:18:58.090Z,28.15
2023-05-24T01:19:58.093Z,29.80
2023-05-24T01:20:58.072Z,29.58
2023-05-24T01:21:58.054Z,29.05
2023-05-24T01:22:58.053Z,28.84
2023-05-24T01:23:58.038Z,27.94
2023-05-24T01:24:58.039Z,27.02
2023-05-24T01:25:58.024Z,29.13
2023-05-24T01:26:58.025Z,29.31
2023-05-24T01:27:58.019Z,29.05
2023-05-24T01:28:58.005Z,29.92
2023-05-24T01:29:58.005Z,27.83
2023-05-24T01:30:57.998Z,26.72
2023-05-24T01:31:58.002Z,26.86
2023-05-24T01:32:58.027Z,26.31
2023-05-24T01:33:57.974Z,27.45
2023-05-24T01:34:57.976Z,25.71
2023-05-24T01:35:58.028Z,28.16
2023-05-24T01:36:57.958Z,26.86
2023-05-24T01:37:57.946Z,25.00
2023-05-24T01:38:57.949Z,26.01
2023-05-24T01:39:57.948Z,28.65
2023-05-24T01:40:57.953Z,28.92
2023-05-24T01:41:57.936Z,28.93
2023-05-24T01:42:57.917Z,28.80
2023-05-24T01:43:57.908Z,30.08
2023-05-24T01:44:57.895Z,29.94
2023-05-24T01:45:57.934Z,27.62
2023-05-24T01:46:57.905Z,27.85
2023-05-24T01:47:57.934Z,26.87
2023-05-24T01:48:57.887Z,30.99
2023-05-24T01:49:57.878Z,28.55
2023-05-24T01:50:57.894Z,28.01
2023-05-24T01:51:57.904Z,27.93
2023-05-24T01:52:57.854Z,28.35
2023-05-24T01:53:57.844Z,28.23
2023-05-24T01:54:57.849Z,28.91
2023-05-24T01:55:57.837Z,30.91
2023-05-24T01:56:57.826Z,27.08
2023-05-24T01:57:57.812Z,30.08
2023-05-24T01:58:57.811Z,30.25
2023-05-24T01:59:57.802Z,30.12
2023-05-24T02:00:57.870Z,27.80
2023-05-24T02:01:57.843Z,27.78
2023-05-24T02:02:57.920Z,29.34
2023-05-24T02:03:57.775Z,26.75
2023-05-24T02:04:57.777Z,29.15
2023-05-24T02:05:57.774Z,28.42
2023-05-24T02:06:57.772Z,27.29
2023-05-24T02:07:57.761Z,28.30
2023-05-24T02:08:57.781Z,30.13
2023-05-24T02:09:57.736Z,27.88
2023-05-24T02:10:57.736Z,27.42
2023-05-24T02:11:57.725Z,28.64
2023-05-24T02:12:57.717Z,25.28
2023-05-24T02:13:57.723Z,26.77
2023-05-24T02:14:57.713Z,25.55
2023-05-24T02:15:57.702Z,28.91
2023-05-24T02:16:57.812Z,28.80
2023-05-24T02:17:57.789Z,26.68
2023-05-24T02:18:57.678Z,28.28
2023-05-24T02:19:57.740Z,31.03
2023-05-24T02:20:57.700Z,29.76
2023-05-24T02:21:57.660Z,31.80
2023-05-24T02:22:57.662Z,30.94
2023-05-24T02:23:57.643Z,30.84
2023-05-24T02:24:57.632Z,28.71
2023-05-24T02:25:57.638Z,28.76
2023-05-24T02:26:57.641Z,28.52
2023-05-24T02:27:57.621Z,29.52
2023-05-24T02:28:57.628Z,29.03
2023-05-24T02:29:57.625Z,28.68
2023-05-24T02:30:57.622Z,26.42
2023-05-24T02:31:57.590Z,27.11
2023-05-24T02:32:57.632Z,27.98
2023-05-24T02:33:57.603Z,29.07
2023-05-24T02:34:57.612Z,30.84
2023-05-24T02:35:57.587Z,27.97
2023-05-24T02:36:57.575Z,28.99
2023-05-24T02:37:57.555Z,26.86
2023-05-24T02:38:57.551Z,28.45
2023-05-24T02:39:57.559Z,28.39
2023-05-24T02:40:57.538Z,26.46
2023-05-24T02:41:57.530Z,28.06
2023-05-24T02:42:57.531Z,28.50
2023-05-24T02:43:57.541Z,27.23
2023-05-24T02:44:57.526Z,26.40
2023-05-24T02:45:57.551Z,26.48
2023-05-24T02:46:57.506Z,26.42
2023-05-24T02:47:57.519Z,27.75
2023-05-24T02:48:57.489Z,25.00
2023-05-24T02:49:57.478Z,29.61
2023-05-24T02:50:57.501Z,28.61
2023-05-24T02:51:57.476Z,29.64
2023-05-24T02:52:57.464Z,27.06
2023-05-24T02:53:57.447Z,30.01
2023-05-24T02:54:57.444Z,28.89
2023-05-24T02:55:57.450Z,30.04
2023-05-24T02:56:57.432Z,29.39
2023-05-24T02:57:57.422Z,27.15
2023-05-24T02:58:57.416Z,26.07
2023-05-24T02:59:57.415Z,30.67
2023-05-24T03:00:57.422Z,26.19
2023-05-24T03:01:57.427Z,28.14
2023-05-24T03:02:57.477Z,29.62
2023-05-24T03:03:57.466Z,25.44
2023-05-24T03:04:57.388Z,27.18
2023-05-24T03:05:57.377Z,27.35
2023-05-24T03:06:57.357Z,27.74
2023-05-24T03:07:57.364Z,26.81
2023-05-24T03:08:57.346Z,25.26
2023-05-24T03:09:57.349Z,27.05
2023-05-24T03:10:57.347Z,28.80
2023-05-24T03:11:57.332Z,25.00
2023-05-24T03:12:57.329Z,27.20
2023-05-24T03:13:57.327Z,27.86
2023-05-24T03:14:57.310Z,27.34
2023-05-24T03:15:57.354Z,26.08
2023-05-24T03:16:57.304Z,27.15
2023-05-24T03:17:57.344Z,28.11
2023-05-24T03:18:57.278Z,28.28
2023-05-24T03:19:57.300Z,29.66
2023-05-24T03:20:57.273Z,27.63
2023-05-24T03:21:57.267Z,27.48
2023-05-24T03:22:57.261Z,27.40
2023-05-24T03:23:57.266Z,29.64
2023-05-24T03:24:57.252Z,28.30
2023-05-24T03:25:57.258Z,28.91
2023-05-24T03:26:57.252Z,29.82
2023-05-24T03:27:57.256Z,25.00
2023-05-24T03:28:57.230Z,31.16
2023-05-24T03:29:57.222Z,27.21
2023-05-24T03:30:57.229Z,28.24
2023-05-24T03:31:57.318Z,27.49
2023-05-24T03:32:57.255Z,30.85
2023-05-24T03:33:57.200Z,29.90
2023-05-24T03:34:57.228Z,29.03
2023-05-24T03:35:57.194Z,30.03
2023-05-24T03:36:57.192Z,27.24
2023-05-24T03:37:57.212Z,28.53
2023-05-24T03:38:57.168Z,26.34
2023-05-24T03:39:57.157Z,26.10
2023-05-24T03:40:57.150Z,25.42
2023-05-24T03:41:57.151Z,27.26
2023-05-24T03:42:57.135Z,29.29
2023-05-24T03:43:57.128Z,27.03
2023-05-24T03:44:57.113Z,28.76
2023-05-24T03:45:57.170Z,28.54
2023-05-24T03:46:57.100Z,28.32
2023-05-24T03:47:57.136Z,27.97
2023-05-24T03:48:57.102Z,27.23
2023-05-24T03:49:57.095Z,28.12
2023-05-24T03:50:57.088Z,26.41
2023-05-24T03:51:57.071Z,31.59
2023-05-24T03:52:57.074Z,29.84
2023-05-24T03:53:57.057Z,28.10
2023-05-24T03:54:57.061Z,28.63
2023-05-24T03:55:57.036Z,27.74
2023-05-24T03:56:57.043Z,27.66
2023-05-24T03:57:57.036Z,29.02
2023-05-24T03:58:57.058Z,26.71
2023-05-24T03:59:57.011Z,27.87
2023-05-24T04:00:57.016Z,31.06
2023-05-24T04:01:57.065Z,27.83
2023-05-24T04:02:57.025Z,27.30
2023-05-24T04:03:57.034Z,27.55
2023-05-24T04:04:56.981Z,28.00
2023-05-24T04:05:56.971Z,29.15
2023-05-24T04:06:56.987Z,28.18
2023-05-24T04:07:56.970Z,26.65
2023-05-24T04:08:56.949Z,30.38
2023-05-24T04:09:56.941Z,27.95
2023-05-24T04:10:56.940Z,28.11
2023-05-24T04:11:56.957Z,28.16
2023-05-24T04:12:56.951Z,26.24
2023-05-24T04:13:56.922Z,25.02
2023-05-24T04:14:56.917Z,27.42
2023-05-24T04:15:56.907Z,31.78
2023-05-24T04:16:56.967Z,27.28
2023-05-24T04:17:57.000Z,29.34
2023-05-24T04:18:56.936Z,30.09
2023-05-24T04:19:56.918Z,31.07
2023-05-24T04:20:56.879Z,27.78
2023-05-24T04:21:56.870Z,28.11
2023-05-24T04:22:56.845Z,28.34
2023-05-24T04:23:56.844Z,27.71
2023-05-24T04:24:56.922Z,27.84
2023-05-24T04:25:56.849Z,29.30
2023-05-24T04:26:56.832Z,30.81
2023-05-24T04:27:56.817Z,28.61
2023-05-24T04:28:56.828Z,27.71
2023-05-24T04:29:56.808Z,27.05
2023-05-24T04:30:56.920Z,26.57
2023-05-24T04:31:56.802Z,29.23
2023-05-24T04:32:56.812Z,26.03
2023-05-24T04:33:56.789Z,26.85
2023-05-24T04:34:56.798Z,27.53
2023-05-24T04:35:56.765Z,26.56
2023-05-24T04:36:56.774Z,26.27
2023-05-24T04:37:56.752Z,28.20
2023-05-24T04:38:56.738Z,26.74
2023-05-24T04:39:56.732Z,27.92
2023-05-24T04:40:56.742Z,28.88
2023-05-24T04:41:56.726Z,26.87
2023-05-24T04:42:56.725Z,27.86
2023-05-24T04:43:56.721Z,27.36
2023-05-24T04:44:56.705Z,26.83
2023-05-24T04:45:56.689Z,28.81
2023-05-24T04:46:56.713Z,28.64
2023-05-24T04:47:56.756Z,26.42
2023-05-24T04:48:56.676Z,29.27
2023-05-24T04:49:56.685Z,27.95
2023-05-24T04:50:56.658Z,26.34
2023-05-24T04:51:56.662Z,30.17
2023-05-24T04:52:56.648Z,27.46
2023-05-24T04:53:56.659Z,30.37
2023-05-24T04:54:56.628Z,25.00
2023-05-24T04:55:56.622Z,28.75
2023-05-24T04:56:56.647Z,28.55
2023-05-24T04:57:56.614Z,28.89
2023-05-24T04:58:56.622Z,26.78
2023-05-24T04:59:56.629Z,30.12
2023-05-24T05:00:56.601Z,28.23
2023-05-24T05:01:56.626Z,27.29
2023-05-24T05:02:56.633Z,29.37
2023-05-24T05:03:56.619Z,28.52
2023-05-24T05:04:56.574Z,26.72
2023-05-24T05:05:56.586Z,25.85
2023-05-24T05:06:56.569Z,27.68
2023-05-24T05:07:56.559Z,26.85
2023-05-24T05:08:56.550Z,28.19
2023-05-24T05:09:56.565Z,25.17
2023-05-24T05:10:56.539Z,26.20
2023-05-24T05:11:56.536Z,27.48
2023-05-24T05:12:56.543Z,28.85
2023-05-24T05:13:56.531Z,26.11
2023-05-24T05:14:56.520Z,27.80
2023-05-24T05:15:56.505Z,28.69
2023-05-24T05:16:56.631Z,28.44
2023-05-24T05:17:56.494Z,27.49
2023-05-24T05:18:56.481Z,28.66
2023-05-24T05:19:56.497Z,29.81
2023-05-24T05:20:56.475Z,27.24
2023-05-24T05:21:56.470Z,26.94
2023-05-24T05:22:56.462Z,25.49
2023-05-24T05:23:56.453Z,27.16
2023-05-24T05:24:56.461Z,26.69
2023-05-24T05:25:56.448Z,26.75
2023-05-24T05:26:56.464Z,30.72
2023-05-24T05:27:56.435Z,25.00
2023-05-24T05:28:56.433Z,27.84
2023-05-24T05:29:56.436Z,27.91
2023-05-24T05:30:56.440Z,28.19
2023-05-24T05:31:56.488Z,28.35
2023-05-24T05:32:56.665Z,26.85
2023-05-24T05:33:56.492Z,26.57
2023-05-24T05:34:56.482Z,31.49
2023-05-24T05:35:56.796Z,30.86
2023-05-24T05:36:56.536Z,30.32
2023-05-24T05:37:56.504Z,36.64
2023-05-24T05:38:56.554Z,42.59
2023-05-24T05:39:56.523Z,35.88
2023-05-24T05:40:56.523Z,32.73
2023-05-24T05:41:56.516Z,29.44
2023-05-24T05:42:56.554Z,25.00
2023-05-24T05:43:56.510Z,25.08
2023-05-24T05:44:56.490Z,25.12
2023-05-24T05:45:56.492Z,25.00
2023-05-24T05:46:56.498Z,28.91
2023-05-24T05:47:56.555Z,28.72
2023-05-24T05:48:56.505Z,25.00
2023-05-24T05:49:56.499Z,27.86
2023-05-24T05:50:56.522Z,26.80
2023-05-24T05:51:56.516Z,25.00
2023-05-24T05:52:56.510Z,29.57
2023-05-24T05:53:56.590Z,28.67
2023-05-24T05:54:56.584Z,30.19
2023-05-24T05:55:56.612Z,25.00
2023-05-24T05:56:56.525Z,25.40
2023-05-24T05:57:56.715Z,25.00
2023-05-24T05:58:56.604Z,25.17
2023-05-24T05:59:56.531Z,27.40
2023-05-24T06:00:56.531Z,27.28
2023-05-24T06:01:56.524Z,29.85
2023-05-24T06:02:56.585Z,28.47
2023-05-24T06:03:56.708Z,25.00
2023-05-24T06:04:56.630Z,27.71
2023-05-24T06:05:56.555Z,29.63
2023-05-24T06:06:56.567Z,30.98
2023-05-24T06:07:56.589Z,29.43
2023-05-24T06:08:56.602Z,27.22
2023-05-24T06:09:56.666Z,27.73
2023-05-24T06:10:56.634Z,26.63
2023-05-24T06:11:56.641Z,27.13
2023-05-24T06:12:56.663Z,25.79
2023-05-24T06:13:56.685Z,26.77
2023-05-24T06:14:56.652Z,26.15
2023-05-24T06:15:56.685Z,27.77
2023-05-24T06:16:58.028Z,26.24
2023-05-24T06:17:56.698Z,31.70
2023-05-24T06:19:05.207Z,27.58
2023-05-24T06:19:57.677Z,28.00
2023-05-24T06:20:56.694Z,27.90
2023-05-24T06:21:56.649Z,28.02
2023-05-24T06:22:56.623Z,23.88
2023-05-24T06:23:56.726Z,26.08
2023-05-24T06:24:56.653Z,28.61
2023-05-24T06:25:57.319Z,27.94
2023-05-24T06:26:56.631Z,25.07
2023-05-24T06:27:56.613Z,28.45
2023-05-24T06:28:56.745Z,28.01
2023-05-24T06:29:56.695Z,28.74
2023-05-24T06:30:56.663Z,26.43
2023-05-24T06:31:56.636Z,27.29
2023-05-24T06:32:56.624Z,25.00
2023-05-24T06:34:56.568Z,26.29
2023-05-24T06:35:56.577Z,26.82
2023-05-24T06:36:56.613Z,34.59
2023-05-24T06:37:56.547Z,51.54
2023-05-24T06:38:56.554Z,64.68
2023-05-24T06:39:56.593Z,71.33
2023-05-24T06:40:56.522Z,73.09
2023-05-24T06:41:56.515Z,72.60
2023-05-24T06:42:56.507Z,80.70
2023-05-24T06:43:56.515Z,84.86
2023-05-24T06:44:57.302Z,89.66
2023-05-24T06:45:56.824Z,95.09
2023-05-24T06:46:56.599Z,96.86
2023-05-24T06:47:56.559Z,99.50
2023-05-24T06:48:56.625Z,104.53
2023-05-24T06:49:56.468Z,106.55
2023-05-24T06:50:56.476Z,108.25
2023-05-24T06:51:56.861Z,105.87
2023-05-24T06:52:56.447Z,109.40
2023-05-24T06:53:56.434Z,112.95
2023-05-24T06:54:56.493Z,112.58
2023-05-24T06:55:57.684Z,112.10
2023-05-24T06:56:56.445Z,112.44
2023-05-24T06:57:56.435Z,110.58
2023-05-24T06:58:56.410Z,113.34
2023-05-24T06:59:56.422Z,112.06
2023-05-24T07:00:56.472Z,109.00
2023-05-24T07:01:56.417Z,105.10
2023-05-24T07:02:56.439Z,97.95
2023-05-24T07:03:56.391Z,88.76
2023-05-24T07:04:56.479Z,78.95
2023-05-24T07:05:56.374Z,58.82
2023-05-24T07:06:56.349Z,50.41
2023-05-24T07:07:56.350Z,60.98
2023-05-24T07:08:56.388Z,65.47
2023-05-24T07:09:56.351Z,59.48
2023-05-24T07:10:56.350Z,62.25
2023-05-24T07:11:56.368Z,63.84
2023-05-24T07:12:56.316Z,72.66
2023-05-24T07:13:56.320Z,69.03
2023-05-24T07:14:56.299Z,71.94
2023-05-24T07:15:56.310Z,80.04
2023-05-24T07:16:56.350Z,82.75
2023-05-24T07:17:56.436Z,85.17
2023-05-24T07:18:56.418Z,85.48
2023-05-24T07:19:56.396Z,88.41
2023-05-24T07:20:56.425Z,90.13
2023-05-24T07:21:56.433Z,86.10
2023-05-24T07:22:56.507Z,93.07
2023-05-24T07:23:56.486Z,93.64
2023-05-24T07:24:56.522Z,90.49
2023-05-24T07:25:56.512Z,90.39
2023-05-24T07:26:56.544Z,86.51
2023-05-24T07:27:56.519Z,81.59
2023-05-24T07:28:56.557Z,65.87
2023-05-24T07:29:56.558Z,71.27
2023-05-24T07:30:56.580Z,67.44
2023-05-24T07:31:56.780Z,70.80
2023-05-24T07:32:56.938Z,79.59
2023-05-24T07:33:56.639Z,76.03
2023-05-24T07:34:56.673Z,76.98
2023-05-24T07:35:56.630Z,79.26
2023-05-24T07:36:56.813Z,85.22
2023-05-24T07:37:56.629Z,76.82
2023-05-24T07:38:56.653Z,50.20
2023-05-24T07:39:56.614Z,33.25
2023-05-24T07:40:56.666Z,33.56
2023-05-24T07:41:56.669Z,40.40
2023-05-24T07:42:56.695Z,39.21
2023-05-24T07:43:56.679Z,51.06
2023-05-24T07:44:56.692Z,65.69
2023-05-24T07:45:56.742Z,67.47
2023-05-24T07:46:56.841Z,77.01
2023-05-24T07:47:57.048Z,82.95
2023-05-24T07:48:56.837Z,85.75
2023-05-24T07:49:56.727Z,88.96
2023-05-24T07:50:56.722Z,92.02
2023-05-24T07:51:56.759Z,96.35
2023-05-24T07:52:56.810Z,101.67
2023-05-24T07:53:56.901Z,106.66
2023-05-24T07:54:56.936Z,107.12
2023-05-24T07:55:56.973Z,109.87
2023-05-24T07:56:57.027Z,111.97
2023-05-24T07:57:57.090Z,113.36
2023-05-24T07:58:57.110Z,115.69
2023-05-24T07:59:57.144Z,119.27
2023-05-24T08:00:57.179Z,123.29
2023-05-24T08:01:57.253Z,124.08
2023-05-24T08:02:57.382Z,126.81
2023-05-24T08:03:57.503Z,131.14
2023-05-24T08:04:57.391Z,130.99
2023-05-24T08:05:57.462Z,129.69
2023-05-24T08:06:57.554Z,132.31
2023-05-24T08:07:57.602Z,134.38
2023-05-24T08:08:57.669Z,133.77
2023-05-24T08:09:57.704Z,132.59
2023-05-24T08:10:57.783Z,134.36
2023-05-24T08:11:57.825Z,133.58
2023-05-24T08:12:57.951Z,135.74
2023-05-24T08:13:57.959Z,134.06
2023-05-24T08:14:58.017Z,135.39
2023-05-24T08:15:58.098Z,135.65
2023-05-24T08:16:58.157Z,133.17
2023-05-24T08:17:58.297Z,132.30
2023-05-24T08:18:58.308Z,131.52
2023-05-24T08:19:58.542Z,131.05
2023-05-24T08:20:58.417Z,130.57
2023-05-24T08:21:58.501Z,131.85
2023-05-24T08:22:58.536Z,131.83
2023-05-24T08:23:58.662Z,131.23
2023-05-24T08:24:58.682Z,133.42
2023-05-24T08:25:58.823Z,131.03
2023-05-24T08:26:58.771Z,134.46
2023-05-24T08:27:58.844Z,132.75
2023-05-24T08:28:58.847Z,137.22
2023-05-24T08:29:58.889Z,136.02
2023-05-24T08:30:58.928Z,136.48
2023-05-24T08:31:59.443Z,137.83
2023-05-24T08:32:59.109Z,137.43
2023-05-24T08:33:59.087Z,137.74
2023-05-24T08:35:10.629Z,138.13
2023-05-24T08:36:00.260Z,138.30
2023-05-24T08:36:59.076Z,136.52
2023-05-24T08:37:59.065Z,132.20
2023-05-24T08:38:59.058Z,136.86
2023-05-24T08:39:59.053Z,127.51
2023-05-24T08:40:59.056Z,124.62
2023-05-24T08:42:08.808Z,126.65
2023-05-24T08:43:00.061Z,126.84
2023-05-24T08:43:59.028Z,127.22
2023-05-24T08:44:59.026Z,127.30
2023-05-24T08:45:59.366Z,128.13
2023-05-24T08:46:59.369Z,136.47
2023-05-24T08:47:59.083Z,138.67
2023-05-24T08:48:59.069Z,141.21
2023-05-24T08:49:59.007Z,146.27
2023-05-24T08:50:58.998Z,153.41
2023-05-24T08:51:59.371Z,158.79
2023-05-24T08:52:58.997Z,161.38
2023-05-24T08:53:58.997Z,166.13
2023-05-24T08:54:58.978Z,168.09
2023-05-24T08:55:59.366Z,174.53
2023-05-24T08:56:58.956Z,179.92
2023-05-24T08:57:59.075Z,183.27
2023-05-24T08:58:59.074Z,191.63
2023-05-24T08:59:59.178Z,195.54
2023-05-24T09:00:59.230Z,197.72
2023-05-24T09:01:59.257Z,205.09
2023-05-24T09:02:59.341Z,206.87
2023-05-24T09:03:59.404Z,211.51
2023-05-24T09:04:59.460Z,213.93
2023-05-24T09:05:59.532Z,220.11
2023-05-24T09:06:59.497Z,224.61
2023-05-24T09:07:59.575Z,240.09
2023-05-24T09:08:59.653Z,242.73
2023-05-24T09:09:59.665Z,241.25
2023-05-24T09:11:00.023Z,242.63
2023-05-24T09:11:59.741Z,235.53
2023-05-24T09:12:59.817Z,237.14
2023-05-24T09:13:59.828Z,242.32
2023-05-24T09:14:59.857Z,235.63
2023-05-24T09:15:59.992Z,246.34
2023-05-24T09:16:59.950Z,243.33
2023-05-24T09:18:00.042Z,249.81
2023-05-24T09:19:00.027Z,247.53
2023-05-24T09:20:00.189Z,248.80
2023-05-24T09:21:00.133Z,250.00
2023-05-24T09:22:00.178Z,243.00
2023-05-24T09:23:00.179Z,247.19
2023-05-24T09:24:00.316Z,247.69
2023-05-24T09:25:00.272Z,244.25
2023-05-24T09:26:00.311Z,242.30
2023-05-24T09:27:00.381Z,241.29
2023-05-24T09:28:00.354Z,241.80
2023-05-24T09:29:00.387Z,239.49
2023-05-24T09:30:00.446Z,230.91
2023-05-24T09:31:00.547Z,227.79
2023-05-24T09:32:00.610Z,225.47
2023-05-24T09:33:00.779Z,225.06
2023-05-24T09:34:00.605Z,207.38
2023-05-24T09:35:00.634Z,199.74
2023-05-24T09:36:00.641Z,187.20
2023-05-24T09:37:00.875Z,177.00
2023-05-24T09:38:00.848Z,160.32
2023-05-24T09:39:00.776Z,142.57
2023-05-24T09:40:00.927Z,148.66
2023-05-24T09:41:00.844Z,141.57
2023-05-24T09:42:01.394Z,132.76
2023-05-24T09:43:00.976Z,137.54
2023-05-24T09:44:00.963Z,146.98
2023-05-24T09:45:01.000Z,144.31
2023-05-24T09:46:01.039Z,146.08
2023-05-24T09:47:01.138Z,140.12
2023-05-24T09:48:01.181Z,124.32
2023-05-24T09:49:01.187Z,111.45
2023-05-24T09:50:01.276Z,111.76
2023-05-24T09:51:01.284Z,119.59
2023-05-24T09:52:01.994Z,108.65
2023-05-24T09:53:01.391Z,104.08
2023-05-24T09:54:01.446Z,73.39
2023-05-24T09:55:01.505Z,68.77
2023-05-24T09:56:01.833Z,62.06
2023-05-24T09:57:03.522Z,38.83
2023-05-24T09:58:01.599Z,33.77
2023-05-24T09:59:01.632Z,27.95
2023-05-24T10:00:01.654Z,28.81
2023-05-24T10:01:01.614Z,26.00
2023-05-24T10:02:01.569Z,27.47
2023-05-24T10:03:01.676Z,26.64
2023-05-24T10:04:01.641Z,21.50
2023-05-24T10:05:01.700Z,25.00
2023-05-24T10:06:01.544Z,32.21
2023-05-24T10:07:01.532Z,40.09
2023-05-24T10:08:01.574Z,34.04
2023-05-24T10:09:01.540Z,30.18
2023-05-24T10:10:01.640Z,26.19
2023-05-24T10:11:01.551Z,25.89
2023-05-24T10:12:01.610Z,30.92
2023-05-24T10:13:01.544Z,24.51
2023-05-24T10:14:01.511Z,35.40
2023-05-24T10:15:01.530Z,32.97
2023-05-24T10:16:01.485Z,25.36
2023-05-24T10:17:01.549Z,34.86
2023-05-24T10:18:01.628Z,27.01
2023-05-24T10:19:01.468Z,25.21
2023-05-24T10:20:01.494Z,29.05
2023-05-24T10:21:01.647Z,40.90
2023-05-24T10:22:01.458Z,31.59
2023-05-24T10:23:01.558Z,28.30
2023-05-24T10:24:01.449Z,32.73
2023-05-24T10:25:01.425Z,32.10
2023-05-24T10:26:01.417Z,25.79
2023-05-24T10:27:01.400Z,34.39
2023-05-24T10:28:01.416Z,29.23
2023-05-24T10:29:01.386Z,29.61
2023-05-24T10:30:01.382Z,40.70
2023-05-24T10:31:01.527Z,38.43
2023-05-24T10:32:01.392Z,42.33
2023-05-24T10:33:01.451Z,43.88
2023-05-24T10:34:07.045Z,45.84
2023-05-24T10:35:02.377Z,46.32
2023-05-24T10:36:01.351Z,48.25
2023-05-24T10:37:01.399Z,52.10
2023-05-24T10:38:01.343Z,58.24
2023-05-24T10:39:01.332Z,73.39
2023-05-24T10:40:01.358Z,81.51
2023-05-24T10:41:01.380Z,87.51
2023-05-24T10:42:01.341Z,91.51
2023-05-24T10:43:01.322Z,97.34
2023-05-24T10:44:09.673Z,105.61
2023-05-24T10:45:02.337Z,105.99
2023-05-24T10:46:01.368Z,107.57
2023-05-24T10:47:01.293Z,111.46
2023-05-24T10:48:01.264Z,119.51
2023-05-24T10:49:01.254Z,132.02
2023-05-24T10:50:01.317Z,136.41
2023-05-24T10:51:01.282Z,140.38
2023-05-24T10:52:01.243Z,143.71
2023-05-24T10:53:01.293Z,149.84
2023-05-24T10:54:01.390Z,152.93
2023-05-24T10:55:04.251Z,155.35
2023-05-24T10:56:01.436Z,157.04
2023-05-24T10:57:01.406Z,157.18
2023-05-24T10:58:01.897Z,160.74
2023-05-24T10:59:01.383Z,160.75
2023-05-24T11:00:01.393Z,165.55
2023-05-24T11:01:01.401Z,168.73
2023-05-24T11:02:01.407Z,173.88
2023-05-24T11:03:01.486Z,175.70
2023-05-24T11:04:01.391Z,177.15
2023-05-24T11:05:01.365Z,178.80
2023-05-24T11:06:01.430Z,182.32
2023-05-24T11:07:01.348Z,183.90
2023-05-24T11:08:01.330Z,188.45
2023-05-24T11:09:01.306Z,190.68
2023-05-24T11:10:01.366Z,194.31
2023-05-24T11:11:11.515Z,196.53
2023-05-24T11:12:02.377Z,196.91
2023-05-24T11:13:01.324Z,197.97
2023-05-24T11:14:01.337Z,200.16
2023-05-24T11:15:01.313Z,204.20
2023-05-24T11:16:01.440Z,208.73
2023-05-24T11:17:01.298Z,213.27
2023-05-24T11:18:01.375Z,212.91
2023-05-24T11:19:01.266Z,211.20
2023-05-24T11:20:01.440Z,213.14
2023-05-24T11:21:01.480Z,216.11
2023-05-24T11:41:45.583Z,25.00
2023-05-24T11:42:45.586Z,25.00
2023-05-24T11:43:45.559Z,25.00
2023-05-24T11:44:45.535Z,25.00
2023-05-24T11:45:45.583Z,25.00
2023-05-24T11:54:39.306Z,25.00
2023-05-24T11:55:39.332Z,25.00
2023-05-24T11:56:39.391Z,25.00
2023-05-24T11:57:39.292Z,25.00
2023-05-24T11:58:39.280Z,25.00
2023-05-24T11:59:39.291Z,25.00
2023-05-24T12:00:39.338Z,25.45
2023-05-24T12:01:39.282Z,25.00
2023-05-24T12:02:39.416Z,27.89
2023-05-24T12:03:39.401Z,25.00
2023-05-24T12:04:39.296Z,25.55
2023-05-24T12:05:39.249Z,25.00
2023-05-24T12:06:39.265Z,25.45
2023-05-24T12:07:39.234Z,25.00
2023-05-24T12:08:39.228Z,28.40
2023-05-24T12:09:39.220Z,27.05
2023-05-24T12:10:39.213Z,27.26
2023-05-24T12:11:39.209Z,26.58
2023-05-24T12:12:45.656Z,25.99
2023-05-24T12:13:40.204Z,26.43
2023-05-24T12:14:39.194Z,26.54
2023-05-24T12:15:39.216Z,21.00
2023-05-24T12:16:39.271Z,19.08
2023-05-24T12:17:39.270Z,19.32
2023-05-24T12:18:45.830Z,25.80
2023-05-24T12:19:40.170Z,26.06
2023-05-24T12:20:39.291Z,26.09
2023-05-24T12:21:39.151Z,24.53
2023-05-24T12:22:39.152Z,20.73
2023-05-24T12:23:39.137Z,17.79
2023-05-24T12:24:39.130Z,26.65
2023-05-24T12:25:39.174Z,27.58
2023-05-24T12:26:39.115Z,27.06
2023-05-24T12:27:39.115Z,29.18
2023-05-24T12:28:39.107Z,28.11
2023-05-24T12:29:39.119Z,27.65
2023-05-24T12:30:39.089Z,29.04
2023-05-24T12:31:39.141Z,26.01
2023-05-24T12:32:39.111Z,25.53
2023-05-24T12:33:39.074Z,29.78
2023-05-24T12:34:39.058Z,29.69
2023-05-24T12:35:39.058Z,30.48
2023-05-24T12:36:39.069Z,28.65
2023-05-24T12:37:39.049Z,26.71
2023-05-24T12:38:39.030Z,25.88
2023-05-24T12:39:39.025Z,28.76
2023-05-24T12:40:39.026Z,26.31
2023-05-24T12:41:39.021Z,28.58
2023-05-24T12:42:38.999Z,27.12
2023-05-24T12:43:38.994Z,25.13
2023-05-24T12:44:39.027Z,25.31
2023-05-24T12:45:39.058Z,29.87
2023-05-24T12:46:39.119Z,28.54
2023-05-24T12:47:39.101Z,26.48
2023-05-24T12:48:39.100Z,28.62
2023-05-24T12:49:39.144Z,29.89
2023-05-24T12:50:39.146Z,29.85
2023-05-24T12:51:39.226Z,26.92
2023-05-24T12:52:39.210Z,26.53
2023-05-24T12:53:39.225Z,28.41
2023-05-24T12:54:39.269Z,27.70
2023-05-24T12:55:39.296Z,28.46
2023-05-24T12:56:39.294Z,28.45
2023-05-24T12:57:39.333Z,26.82
2023-05-24T12:58:39.404Z,30.35
2023-05-24T12:59:39.393Z,30.68
2023-05-24T13:00:39.479Z,31.86
2023-05-24T13:01:39.551Z,31.51
2023-05-24T13:02:40.159Z,28.33
2023-05-24T13:03:39.527Z,27.44
2023-05-24T13:04:39.555Z,26.20
2023-05-24T13:05:39.689Z,27.46
2023-05-24T13:06:39.604Z,27.32
2023-05-24T13:07:39.685Z,27.00
2023-05-24T13:08:40.998Z,29.61
2023-05-24T13:09:39.727Z,30.62
2023-05-24T13:10:39.766Z,30.20
2023-05-24T13:11:39.773Z,29.26
2023-05-24T13:12:39.795Z,29.95
2023-05-24T13:13:39.839Z,29.01
2023-05-24T13:14:39.874Z,31.25
2023-05-24T13:15:39.910Z,29.20
2023-05-24T13:16:40.013Z,27.22
2023-05-24T13:17:40.028Z,28.46
2023-05-24T13:18:39.984Z,26.94
2023-05-24T13:19:40.024Z,25.84
2023-05-24T13:20:40.175Z,25.00
2023-05-24T13:21:40.170Z,27.57
2023-05-24T13:22:40.129Z,26.51
2023-05-24T13:23:40.156Z,25.00
2023-05-24T13:24:40.198Z,25.20
2023-05-24T13:25:40.229Z,26.50
2023-05-24T13:26:40.268Z,25.00
2023-05-24T13:27:40.337Z,25.74
2023-05-24T13:28:51.798Z,26.11
2023-05-24T13:29:52.672Z,26.20
2023-05-24T13:30:41.441Z,26.38
2023-05-24T13:31:40.538Z,26.76
2023-05-24T13:32:41.257Z,13.79
2023-05-24T13:33:40.308Z,8.21
2023-05-24T13:34:40.293Z,2.04
2023-05-24T13:35:40.293Z,25.62